Portada
METAR-TAF:

METAR-TAF

Aeroports :

Aeroport Internacional de Mitiga

Trípoli, Líbia

latitud: 32-54N, longitud: 13-17E, altitud: 11 m

METAR: manca

Hora: 13:21 (11:21 UTC)

Pronòstic

L'informe es va fer fa 18 hores i 21 minuts, a les 17:00 UTC
Pronòstic vàlid del 25 a les 18 UTC al 26 a les 18 UTC
Vent 2 kt amb direcció variable
Visibilitat: 8000 m
Evolucionant progressivament
l' 26 a les 10 UTC al 26 a les 12 UTC
Evolucionant progressivament
l' 26 a les 15 UTC al 27 a les 17 UTC
Vent 10 kt del Nord

TAF: HLLM 251700Z 2518/2618 VRB02KT 8000 NSC BECMG 2610/2612 25010K BECMG 2615/2717 35010KT

Observacions i pronòstics meteorològics de més de 4000 aeroports (METAR i TAF).

Les estacions disponibles són els punts grocs i vermells al mapa.

Posi el ratolí al punt desitjat per veure el nom de l'estació.

Feu clic per veure les observacions i els pronòstics meteorològics.

Per canviar el mapa: feu clic els botons verds amb una creu de color negre per apropar; al botó verd amb un guió per allunyar la imatge; o en les fletxes verdes per a mapes adjacents.


METAR-TAF: